Time;durP1;ratioP1;P1;durP2;ratioP2;P2;SDS_P1;SDS_P2;PMS_P1;PMS_P2;Temp;Humidity;BMP_temperature;BMP_pressure;BME280_temperature;BME280_humidity;BME280_pressure;Samples;Min_cycle;Max_cycle;Signal;HPM_P1;HPM_P2
2022/11/17 00:02:01;;;;;;;4.75;3.00;;;;;;;0.70;100.00;98344.98;1677160;85;20956;-78
2022/11/17 00:04:28;;;;;;;4.30;2.67;;;;;;;0.72;100.00;98346.05;1676630;84;21520;-78
2022/11/17 00:06:58;;;;;;;5.62;3.45;;;;;;;0.72;100.00;98337.94;1680455;85;20988;-78
2022/11/17 00:09:25;;;;;;;6.75;3.85;;;;;;;0.73;100.00;98336.85;1677746;85;21245;-79
2022/11/17 00:14:36;;;;;;;8.18;3.70;;;;;;;0.73;100.00;98335.50;1671640;84;21538;-79
2022/11/17 00:17:08;;;;;;;6.12;3.58;;;;;;;0.70;100.00;98337.41;1667990;84;21591;-78
2022/11/17 00:22:22;;;;;;;5.60;3.22;;;;;;;0.65;100.00;98328.26;1672292;84;21154;-79
2022/11/17 00:24:49;;;;;;;5.37;3.52;;;;;;;0.64;100.00;98337.99;1669893;84;20937;-78
2022/11/17 00:27:15;;;;;;;5.90;3.20;;;;;;;0.60;100.00;98328.30;1671689;85;21060;-79
2022/11/17 00:29:41;;;;;;;3.80;2.67;;;;;;;0.57;100.00;98328.88;1669844;84;21039;-78
2022/11/17 00:34:59;;;;;;;6.10;3.92;;;;;;;0.52;100.00;98326.21;1672936;84;21548;-79
2022/11/17 00:37:27;;;;;;;6.22;3.75;;;;;;;0.50;100.00;98330.28;1684316;83;20991;-79
2022/11/17 00:39:54;;;;;;;4.08;2.67;;;;;;;0.47;100.00;98338.39;1689147;84;21058;-79
2022/11/17 00:42:20;;;;;;;5.53;3.50;;;;;;;0.45;100.00;98341.91;1691965;83;21500;-79
2022/11/17 00:44:47;;;;;;;4.45;3.05;;;;;;;0.44;100.00;98345.70;1699322;83;20981;-78
2022/11/17 00:47:13;;;;;;;5.67;3.65;;;;;;;0.46;100.00;98341.38;1703406;83;21076;-78
2022/11/17 00:49:41;;;;;;;8.63;3.72;;;;;;;0.46;100.00;98344.88;1699031;83;20885;-79
2022/11/17 00:52:09;;;;;;;5.53;3.33;;;;;;;0.46;100.00;98346.77;1692062;83;20856;-79
2022/11/17 00:54:35;;;;;;;7.92;4.35;;;;;;;0.43;100.00;98346.79;1691682;83;21056;-79
2022/11/17 00:57:02;;;;;;;6.00;3.55;;;;;;;0.42;100.00;98347.06;1699812;83;21519;-78
2022/11/17 00:59:28;;;;;;;6.47;3.67;;;;;;;0.42;100.00;98351.12;1693895;83;21298;-78
2022/11/17 01:01:57;;;;;;;6.00;3.52;;;;;;;0.42;100.00;98347.06;1695279;83;20897;-78
2022/11/17 01:04:23;;;;;;;8.73;4.87;;;;;;;0.39;100.00;98345.73;1700713;83;21038;-79
2022/11/17 01:06:50;;;;;;;6.53;4.00;;;;;;;0.39;100.00;98351.67;1698837;83;21059;-79
2022/11/17 01:09:20;;;;;;;5.92;3.55;;;;;;;0.38;100.00;98348.70;1702782;83;20979;-79
2022/11/17 01:11:49;;;;;;;6.47;3.40;;;;;;;0.37;100.00;98346.55;1692267;83;20928;-79
2022/11/17 01:14:20;;;;;;;7.50;4.17;;;;;;;0.35;100.00;98345.22;1675305;82;21027;-79
2022/11/17 01:16:47;;;;;;;6.62;4.05;;;;;;;0.32;100.00;98346.03;1677731;85;21015;-79
2022/11/17 01:19:14;;;;;;;6.72;4.28;;;;;;;0.28;100.00;98341.47;1674299;85;20936;-79
2022/11/17 01:21:41;;;;;;;6.70;3.72;;;;;;;0.24;100.00;98348.51;1681260;85;20964;-79
2022/11/17 01:24:09;;;;;;;7.15;4.00;;;;;;;0.24;100.00;98347.96;1681045;85;21589;-79
2022/11/17 01:26:36;;;;;;;5.87;4.17;;;;;;;0.25;100.00;98346.87;1680124;85;20952;-79
2022/11/17 01:29:04;;;;;;;6.58;4.17;;;;;;;0.24;100.00;98345.27;1667947;85;20996;-79
2022/11/17 01:31:34;;;;;;;7.87;4.08;;;;;;;0.21;100.00;98346.36;1691603;82;21054;-79
2022/11/17 01:34:01;;;;;;;7.03;3.80;;;;;;;0.21;100.00;98340.97;1735593;82;20927;-79
2022/11/17 01:37:17;;;;;;;5.37;3.55;;;;;;;0.19;100.00;98344.48;1743595;81;21088;-79
2022/11/17 01:39:01;;;;;;;7.58;3.85;;;;;;;0.16;100.00;98339.09;1737180;81;20967;-79
2022/11/17 01:41:28;;;;;;;6.60;3.52;;;;;;;0.15;100.00;98334.78;1737377;82;20908;-79
2022/11/17 01:43:57;;;;;;;4.87;3.27;;;;;;;0.12;100.00;98333.98;1714492;81;21554;-79
2022/11/17 01:46:38;;;;;;;6.05;3.67;;;;;;;0.09;100.00;98333.73;1689423;84;20944;-79
2022/11/17 01:49:14;;;;;;;5.00;2.72;;;;;;;0.05;100.00;98336.72;1697933;83;27368;-79
2022/11/17 01:51:47;;;;;;;5.67;3.60;;;;;;;0.04;100.00;98339.15;1693565;83;20994;-79
2022/11/17 01:54:16;;;;;;;6.95;3.20;;;;;;;0.03;100.00;98338.88;1694446;84;20952;-79
2022/11/17 01:56:46;;;;;;;4.67;3.22;;;;;;;0.01;100.00;98344.55;1702044;83;20999;-79
2022/11/17 01:59:24;;;;;;;4.17;3.25;;;;;;;0.01;100.00;98343.20;1706310;82;20933;-80
2022/11/17 02:01:54;;;;;;;4.53;3.20;;;;;;;0.03;100.00;98344.28;1714265;83;21153;-79
2022/11/17 02:04:35;;;;;;;5.37;2.87;;;;;;;0.05;100.00;98342.92;1699298;83;20897;-79
2022/11/17 02:07:13;;;;;;;3.90;2.70;;;;;;;0.05;100.00;98332.67;1700404;83;21004;-79
2022/11/17 02:09:40;;;;;;;4.62;3.15;;;;;;;0.07;100.00;98335.90;1704561;83;21468;-79
2022/11/17 02:12:09;;;;;;;5.47;3.98;;;;;;;0.05;100.00;98329.97;1704276;83;20963;-79
2022/11/17 02:14:37;;;;;;;4.25;3.08;;;;;;;0.03;100.00;98327.55;1693844;83;21552;-79
2022/11/17 02:17:04;;;;;;;6.37;3.40;;;;;;;0.03;100.00;98329.44;1677334;84;21039;-79
2022/11/17 02:19:36;;;;;;;4.83;3.60;;;;;;;0.00;100.00;98336.23;1671383;84;20900;-79
2022/11/17 02:22:38;;;;;;;5.30;3.53;;;;;;;-0.04;100.00;98337.32;1663254;84;21565;-79
2022/11/17 02:25:33;;;;;;;6.92;4.20;;;;;;;-0.08;100.00;98332.20;1677478;84;21509;-79
2022/11/17 02:28:23;;;;;;;7.28;4.10;;;;;;;-0.07;100.00;98333.83;1682216;83;21255;-79
2022/11/17 02:31:19;;;;;;;7.17;3.90;;;;;;;-0.09;100.00;98329.79;1626318;87;21646;-79
2022/11/17 02:34:17;;;;;;;6.87;4.08;;;;;;;-0.11;100.00;98327.36;1661533;84;21000;-79
2022/11/17 02:37:07;;;;;;;5.42;3.80;;;;;;;-0.10;100.00;98326.28;1674534;85;21012;-79
2022/11/17 02:39:43;;;;;;;5.95;4.05;;;;;;;-0.09;100.00;98333.83;1675797;84;21043;-79
2022/11/17 02:45:29;;;;;;;6.33;4.40;;;;;;;-0.12;100.00;98341.94;1677846;83;21582;-79
2022/11/17 02:47:56;;;;;;;6.62;4.53;;;;;;;-0.14;100.00;98345.45;1662315;85;21138;-79
2022/11/17 02:50:23;;;;;;;7.55;5.40;;;;;;;-0.17;100.00;98347.34;1659035;85;21707;-78
2022/11/17 02:52:49;;;;;;;8.45;5.80;;;;;;;-0.20;100.00;98344.39;1658621;85;21064;-79
2022/11/17 02:55:16;;;;;;;9.90;5.90;;;;;;;-0.22;100.00;98341.97;1680877;84;21844;-79
2022/11/17 02:57:44;;;;;;;7.97;5.37;;;;;;;-0.25;100.00;98341.17;1686962;84;21505;-78
2022/11/17 03:00:16;;;;;;;12.43;7.08;;;;;;;-0.24;100.00;98341.98;1676001;85;21007;-79
2022/11/17 03:03:22;;;;;;;9.13;5.95;;;;;;;-0.22;100.00;98334.42;1681030;85;21031;-78
2022/11/17 03:06:15;;;;;;;11.73;7.15;;;;;;;-0.23;100.00;98329.56;1686074;84;21039;-78
2022/11/17 03:09:00;;;;;;;9.78;6.00;;;;;;;-0.22;100.00;98326.33;1669670;85;21179;-78
2022/11/17 03:11:44;;;;;;;10.68;5.78;;;;;;;-0.21;100.00;98333.34;1669421;85;21000;-78
2022/11/17 03:14:28;;;;;;;10.60;6.08;;;;;;;-0.20;100.00;98333.06;1667283;85;20908;-79
2022/11/17 03:17:01;;;;;;;9.83;6.45;;;;;;;-0.18;100.00;98324.70;1677058;84;21160;-79
2022/11/17 03:19:46;;;;;;;9.15;6.00;;;;;;;-0.20;100.00;98327.67;1659525;85;20952;-79
2022/11/17 03:22:18;;;;;;;10.40;6.53;;;;;;;-0.20;100.00;98326.86;1670771;84;21130;-78
2022/11/17 03:24:51;;;;;;;10.08;6.30;;;;;;;-0.21;100.00;98336.84;1679378;84;20988;-78
2022/11/17 03:27:34;;;;;;;10.50;6.60;;;;;;;-0.22;100.00;98332.53;1677641;83;21032;-79
2022/11/17 03:30:05;;;;;;;11.45;6.30;;;;;;;-0.24;100.00;98329.84;1680276;84;21125;-81
2022/11/17 03:32:37;;;;;;;10.88;6.53;;;;;;;-0.25;100.00;98322.83;1667192;85;20951;-80
2022/11/17 03:35:14;;;;;;;10.95;7.10;;;;;;;-0.24;100.00;98329.30;1658788;85;21434;-80
2022/11/17 03:37:48;;;;;;;12.55;8.40;;;;;;;-0.25;100.00;98331.73;1688235;84;21446;-80
2022/11/17 03:40:18;;;;;;;12.10;7.53;;;;;;;-0.26;100.00;98329.30;1675544;84;21526;-80
2022/11/17 03:42:51;;;;;;;11.90;8.53;;;;;;;-0.26;100.00;98327.42;1691146;83;21538;-80
2022/11/17 03:45:34;;;;;;;10.30;6.95;;;;;;;-0.29;100.00;98322.57;1704014;83;20936;-80
2022/11/17 03:48:15;;;;;;;12.25;6.92;;;;;;;-0.30;100.00;98326.34;1700472;84;21597;-80
2022/11/17 03:51:03;;;;;;;14.18;7.75;;;;;;;-0.27;100.00;98328.50;1700169;83;21431;-80
2022/11/17 03:53:29;;;;;;;12.43;7.90;;;;;;;-0.26;100.00;98322.02;1695215;84;20889;-80
2022/11/17 03:56:18;;;;;;;11.60;7.95;;;;;;;-0.29;100.00;98321.22;1701037;84;21508;-80
2022/11/17 03:59:05;;;;;;;12.78;8.63;;;;;;;-0.34;100.00;98315.84;1685871;84;20943;-81
2022/11/17 04:01:31;;;;;;;14.20;9.23;;;;;;;-0.37;100.00;98316.39;1700315;83;21180;-82
2022/11/17 04:03:59;;;;;;;14.00;9.33;;;;;;;-0.43;100.00;98313.45;1693702;83;20856;-80
2022/11/17 04:06:25;;;;;;;16.45;10.15;;;;;;;-0.48;100.00;98311.57;1686892;83;21009;-80
2022/11/17 04:08:52;;;;;;;12.82;8.73;;;;;;;-0.50;100.00;98315.08;1702157;84;21441;-80
2022/11/17 04:16:49;;;;;;;14.20;9.25;;;;;;;-0.44;100.00;98316.68;1697964;83;20943;-79
2022/11/17 04:19:15;;;;;;;12.10;8.10;;;;;;;-0.45;100.00;98314.26;1686537;84;21590;-79
2022/11/17 04:21:42;;;;;;;13.95;8.98;;;;;;;-0.45;100.00;98310.22;1691296;83;20868;-78
2022/11/17 04:24:09;;;;;;;16.10;9.80;;;;;;;-0.48;100.00;98310.76;1693321;82;21004;-79
2022/11/17 04:29:20;;;;;;;16.12;10.15;;;;;;;-0.47;100.00;98309.68;1706096;83;21421;-78
2022/11/17 04:31:47;;;;;;;14.20;9.88;;;;;;;-0.47;100.00;98311.03;1720482;83;20907;-78
2022/11/17 04:34:14;;;;;;;15.78;9.30;;;;;;;-0.50;100.00;98316.42;1703950;83;21033;-78
2022/11/17 04:36:44;;;;;;;16.20;10.50;;;;;;;-0.53;100.00;98324.25;1704578;82;21563;-79
2022/11/17 04:39:13;;;;;;;14.03;9.45;;;;;;;-0.52;100.00;98325.87;1663764;85;21843;-78
2022/11/17 04:42:02;;;;;;;19.48;11.33;;;;;;;-0.54;100.00;98338.81;1696123;83;20863;-78
2022/11/17 04:44:27;;;;;;;18.35;10.80;;;;;;;-0.55;100.00;98342.05;1697793;83;21004;-77
2022/11/17 04:46:54;;;;;;;18.82;9.70;;;;;;;-0.55;100.00;98355.53;1692995;82;21521;-77
2022/11/17 04:49:21;;;;;;;16.23;10.65;;;;;;;-0.58;100.00;98367.42;1702913;82;20870;-76
2022/11/17 04:51:48;;;;;;;17.32;10.60;;;;;;;-0.60;100.00;98368.23;1688422;83;21470;-77
2022/11/17 04:54:18;;;;;;;15.75;10.30;;;;;;;-0.63;100.00;98361.50;1690725;83;20977;-77
2022/11/17 04:56:46;;;;;;;22.17;12.40;;;;;;;-0.63;100.00;98353.41;1663827;85;20922;-77
2022/11/17 04:59:14;;;;;;;15.93;10.78;;;;;;;-0.63;100.00;98360.15;1657794;86;21057;-78
2022/11/17 05:01:40;;;;;;;19.75;10.78;;;;;;;-0.63;100.00;98360.15;1662895;85;21132;-78
2022/11/17 05:04:09;;;;;;;19.80;11.75;;;;;;;-0.63;100.00;98357.45;1655047;85;21744;-77
2022/11/17 05:06:43;;;;;;;17.87;11.73;;;;;;;-0.64;100.00;98358.53;1655028;86;20918;-77
2022/11/17 05:09:12;;;;;;;20.20;11.75;;;;;;;-0.65;100.00;98351.53;1652116;86;21514;-77
2022/11/17 05:14:25;;;;;;;17.32;10.95;;;;;;;-0.58;100.00;98357.45;1659026;85;20992;-78
2022/11/17 05:17:09;;;;;;;16.55;11.08;;;;;;;-0.56;100.00;98366.58;1665637;84;21257;-77
2022/11/17 05:19:43;;;;;;;18.42;11.20;;;;;;;-0.56;100.00;98372.78;1655551;85;21060;-78
2022/11/17 05:25:03;;;;;;;16.48;10.65;;;;;;;-0.55;100.00;98368.20;1694680;83;20952;-78
2022/11/17 05:27:30;;;;;;;18.02;11.75;;;;;;;-0.59;100.00;98381.44;1715100;81;21039;-78
2022/11/17 05:29:57;;;;;;;18.75;11.57;;;;;;;-0.60;100.00;98377.67;1704499;81;21559;-78
2022/11/17 05:32:23;;;;;;;18.12;11.80;;;;;;;-0.64;100.00;98380.09;1714189;81;21060;-78
2022/11/17 05:34:49;;;;;;;20.97;12.23;;;;;;;-0.67;100.00;98369.31;1673501;83;20935;-78
2022/11/17 05:37:16;;;;;;;19.62;11.83;;;;;;;-0.69;100.00;98368.78;1681090;83;20991;-77
2022/11/17 05:39:43;;;;;;;17.50;11.28;;;;;;;-0.71;100.00;98371.48;1651028;84;20946;-78
2022/11/17 05:42:09;;;;;;;20.27;12.28;;;;;;;-0.76;100.00;98364.20;1621397;88;21623;-77
2022/11/17 05:44:38;;;;;;;21.52;13.48;;;;;;;-0.78;100.00;98364.20;1639148;87;20978;-77
2022/11/17 05:47:04;;;;;;;18.65;11.78;;;;;;;-0.78;100.00;98358.28;1632489;88;20953;-78
2022/11/17 05:49:31;;;;;;;19.77;11.40;;;;;;;-0.79;100.00;98353.97;1640057;85;20978;-78
2022/11/17 05:51:57;;;;;;;18.42;11.60;;;;;;;-0.81;100.00;98349.39;1665207;82;20961;-78
2022/11/17 05:54:25;;;;;;;21.75;12.43;;;;;;;-0.81;100.00;98350.73;1664054;84;21230;-78
2022/11/17 05:57:02;;;;;;;20.52;11.63;;;;;;;-0.80;100.00;98348.30;1686313;84;21047;-78
2022/11/17 05:59:52;;;;;;;20.00;12.68;;;;;;;-0.81;100.00;98352.08;1678748;83;20952;-78
2022/11/17 06:02:24;;;;;;;20.97;12.00;;;;;;;-0.82;100.00;98347.77;1673132;82;21142;-76
2022/11/17 06:04:50;;;;;;;21.12;12.60;;;;;;;-0.85;100.00;98337.53;1635342;84;21434;-77
2022/11/17 06:07:17;;;;;;;18.40;11.85;;;;;;;-0.84;100.00;98338.34;1637908;86;21153;-79
2022/11/17 06:09:44;;;;;;;21.77;13.68;;;;;;;-0.83;100.00;98340.77;1628178;87;20969;-77
2022/11/17 06:12:11;;;;;;;22.93;12.13;;;;;;;-0.82;100.00;98346.96;1638364;85;21449;-77
2022/11/17 06:14:38;;;;;;;23.22;12.78;;;;;;;-0.81;100.00;98350.73;1634784;85;21548;-76
2022/11/17 12:12:39;;;;;;;47.60;22.50;;;;;;;-1.42;100.00;98239.02;1828521;77;26200;-81
2022/11/17 12:15:13;;;;;;;55.35;23.12;;;;;;;-1.46;100.00;98242.52;1769732;79;20879;-80
2022/11/17 12:18:13;;;;;;;51.10;23.42;;;;;;;-1.44;100.00;98245.74;1773142;79;22223;-79
2022/11/17 12:21:00;;;;;;;53.48;24.82;;;;;;;-1.38;100.00;98241.97;1755892;79;20982;-79
2022/11/17 12:24:10;;;;;;;48.55;25.45;;;;;;;-1.32;100.00;98242.78;1771474;78;20896;-80
2022/11/17 12:26:37;;;;;;;55.33;26.68;;;;;;;-1.32;100.00;98246.81;1755185;80;21051;-80
2022/11/17 12:29:24;;;;;;;53.73;25.20;;;;;;;-1.32;100.00;98247.63;1749658;81;21144;-79
2022/11/17 12:31:56;;;;;;;52.30;23.45;;;;;;;-1.32;100.00;98245.47;1748418;81;21259;-80
2022/11/17 12:34:34;;;;;;;76.63;35.03;;;;;;;-1.34;100.00;98234.44;1763396;80;20881;-80
2022/11/17 12:37:18;;;;;;;55.38;27.67;;;;;;;-1.31;100.00;98232.28;1765832;80;20971;-82
2022/11/17 12:40:03;;;;;;;68.92;31.68;;;;;;;-1.34;100.00;98222.31;1761690;81;21483;-82
2022/11/17 12:42:32;;;;;;;50.70;25.50;;;;;;;-1.35;100.00;98218.02;1744245;80;20924;-79
2022/11/17 12:45:04;;;;;;;52.15;24.50;;;;;;;-1.34;100.00;98218.28;1736809;81;21172;-80
2022/11/17 12:47:37;;;;;;;46.42;23.07;;;;;;;-1.34;100.00;98217.47;1711132;83;20931;-80
2022/11/17 12:50:32;;;;;;;50.80;25.72;;;;;;;-1.32;100.00;98211.82;1709684;83;20943;-80
2022/11/17 12:53:35;;;;;;;48.55;24.70;;;;;;;-1.35;100.00;98211.28;1730326;82;20924;-79
2022/11/17 12:56:34;;;;;;;43.50;21.93;;;;;;;-1.38;100.00;98202.94;1603847;88;21139;-80
2022/11/17 12:59:28;;;;;;;38.40;20.57;;;;;;;-1.39;100.00;98197.28;1767001;79;21103;-81
2022/11/17 13:02:32;;;;;;;45.95;24.10;;;;;;;-1.38;100.00;98196.20;1779192;80;20863;-79
2022/11/17 13:05:14;;;;;;;48.73;22.58;;;;;;;-1.41;100.00;98193.52;1774290;80;20991;-80
2022/11/17 13:07:42;;;;;;;45.15;21.87;;;;;;;-1.41;100.00;98198.91;1780405;80;20949;-79
2022/11/17 13:10:29;;;;;;;44.27;21.97;;;;;;;-1.41;100.00;98196.21;1783414;80;20942;-80
2022/11/17 13:13:22;;;;;;;48.65;23.60;;;;;;;-1.41;100.00;98190.02;1772349;79;21108;-81
2022/11/17 13:15:54;;;;;;;43.45;21.40;;;;;;;-1.42;100.00;98185.17;1780251;78;20939;-80
2022/11/17 13:18:36;;;;;;;54.90;25.15;;;;;;;-1.42;100.00;98190.56;1779014;80;20982;-81
2022/11/17 13:21:06;;;;;;;55.35;26.52;;;;;;;-1.45;100.00;98187.06;1770979;80;20863;-79
2022/11/17 13:23:34;;;;;;;53.87;26.23;;;;;;;-1.47;100.00;98175.76;1768204;80;20931;-79
2022/11/17 13:26:22;;;;;;;43.45;21.68;;;;;;;-1.49;100.00;98176.56;1774477;80;21150;-78
2022/11/17 13:29:13;;;;;;;50.05;24.77;;;;;;;-1.51;100.00;98169.30;1781593;79;21020;-82
2022/11/17 13:31:39;;;;;;;47.30;22.50;;;;;;;-1.52;100.00;98167.69;1774966;80;20967;-77
2022/11/17 13:34:16;;;;;;;46.08;22.20;;;;;;;-1.52;100.00;98167.69;1755826;81;20939;-80
2022/11/17 13:36:59;;;;;;;46.90;23.57;;;;;;;-1.52;100.00;98168.23;1776661;79;21006;-79
2022/11/17 13:39:27;;;;;;;44.53;22.73;;;;;;;-1.50;100.00;98173.61;1773135;80;21116;-79
2022/11/17 13:41:54;;;;;;;42.00;21.75;;;;;;;-1.48;100.00;98177.38;1774476;80;21560;-79
2022/11/17 13:44:26;;;;;;;46.10;23.00;;;;;;;-1.50;100.00;98178.98;1777872;80;21528;-77
2022/11/17 13:46:52;;;;;;;41.10;20.92;;;;;;;-1.51;100.00;98185.45;1773089;80;21347;-80
2022/11/17 13:49:34;;;;;;;43.28;21.65;;;;;;;-1.50;100.00;98197.02;1778143;80;21009;-79
2022/11/17 13:52:05;;;;;;;43.63;22.45;;;;;;;-1.51;100.00;98202.14;1778828;80;21873;-79
2022/11/17 13:54:31;;;;;;;47.48;22.80;;;;;;;-1.50;100.00;98202.41;1772933;80;20935;-81
2022/11/17 13:57:06;;;;;;;44.83;22.35;;;;;;;-1.53;100.00;98195.68;1792277;78;21050;-79
2022/11/17 13:59:35;;;;;;;40.65;22.50;;;;;;;-1.51;100.00;98194.87;1807649;78;20958;-79
2022/11/17 14:02:20;;;;;;;40.80;21.77;;;;;;;-1.53;100.00;98192.98;1804278;78;20893;-85
2022/11/17 14:05:13;;;;;;;45.23;23.42;;;;;;;-1.52;100.00;98187.06;1799404;79;21465;-79
2022/11/17 14:07:41;;;;;;;45.40;21.23;;;;;;;-1.54;100.00;98187.87;1802283;78;22090;-79
2022/11/17 14:10:26;;;;;;;38.85;20.68;;;;;;;-1.54;100.00;98193.26;1798875;78;21260;-79
2022/11/17 14:13:05;;;;;;;36.28;19.95;;;;;;;-1.57;100.00;98187.87;1792440;78;20935;-80
2022/11/17 18:04:03;;;;;;;36.17;19.12;;;;;;;-2.25;100.00;98192.67;1792045;78;26215;-81
2022/11/17 18:06:35;;;;;;;38.88;19.40;;;;;;;-2.26;100.00;98199.12;1750481;80;20982;-85
2022/11/17 18:09:02;;;;;;;37.05;19.27;;;;;;;-2.22;100.00;98200.20;1749017;81;21232;-79
2022/11/17 18:11:29;;;;;;;45.40;21.50;;;;;;;-2.22;100.00;98188.64;1748904;80;21031;-79
2022/11/17 18:13:57;;;;;;;37.08;19.82;;;;;;;-2.24;100.00;98180.84;1745402;80;20970;-78
2022/11/17 18:16:26;;;;;;;38.35;20.00;;;;;;;-2.21;100.00;98186.23;1726093;82;21001;-78
2022/11/17 18:18:59;;;;;;;36.28;17.65;;;;;;;-2.17;100.00;98189.47;1691140;83;21556;-76
2022/11/17 18:21:27;;;;;;;46.48;19.15;;;;;;;-2.13;100.00;98182.48;1767865;80;21147;-76
2022/11/17 18:23:55;;;;;;;37.20;19.40;;;;;;;-2.09;100.00;98176.03;1761675;80;20920;-76
2022/11/17 18:26:30;;;;;;;40.85;21.17;;;;;;;-2.10;100.00;98163.66;1758428;81;20944;-76
2022/11/17 18:28:59;;;;;;;39.23;20.20;;;;;;;-2.12;100.00;98149.14;1759678;81;20928;-74
2022/11/17 18:31:28;;;;;;;37.48;19.27;;;;;;;-2.14;100.00;98152.64;1762855;80;20916;-75
2022/11/17 18:34:00;;;;;;;38.88;18.62;;;;;;;-2.15;100.00;98156.94;1751469;81;21144;-76
2022/11/17 18:36:27;;;;;;;42.33;19.20;;;;;;;-2.14;100.00;98168.77;1748614;81;21430;-80
2022/11/17 18:38:55;;;;;;;37.55;19.73;;;;;;;-2.13;100.00;98169.58;1742874;80;20986;-82
2022/11/17 18:41:22;;;;;;;36.42;18.02;;;;;;;-2.11;100.00;98170.92;1727582;82;20988;-75
2022/11/17 18:43:49;;;;;;;37.67;18.92;;;;;;;-2.08;100.00;98163.67;1703503;83;20869;-78
2022/11/17 18:46:18;;;;;;;38.80;17.60;;;;;;;-2.02;100.00;98165.83;1703136;83;21666;-79
2022/11/17 18:48:46;;;;;;;35.03;17.87;;;;;;;-2.00;100.00;98184.66;1703669;83;20936;-79
2022/11/17 18:51:15;;;;;;;38.25;17.95;;;;;;;-2.01;100.00;98180.34;1702051;84;20945;-78
2022/11/17 18:53:43;;;;;;;33.60;16.50;;;;;;;-2.04;100.00;98182.77;1696058;83;20949;-77
2022/11/17 18:56:11;;;;;;;35.88;17.10;;;;;;;-2.05;100.00;98180.61;1703013;83;20904;-76
